Pollock, SD

6:51 PM CDT on August 25, 2016 (GMT -0500)
Farm | | Change Station

Elev 1952 ft 46.12 °N, 100.26 °W | Updated 15 seconds ago

Partly Cloudy
Partly Cloudy
67.6 °F
Feels Like 67.6 °F
N
10.7
Wind Variable Wind from WNW
Gusts 12.3 mph

Today
High -- | Low -- °F
--% Chance of Precip.
Yesterday
High -- | Low -- °F
Precip. -- in
Pressure 30.14 in
Visibility 10.0 miles
Clouds Few 3700 ft
Dew Point 50 °F
Humidity 53%
Rainfall 0.00 in
Snow Depth Not available.
6:54 AM 8:31 PM
Last Quarter, 41% visible
METAR KMBG 252252Z AUTO 30007KT 10SM FEW037 21/09 A3015 RMK AO2 SLP205 T02060089
Pressure 30.14 in
Visibility 10.0 miles
Clouds Few 3700 ft
Dew Point 50 °F
Humidity 53%
Rainfall 0.00 in
Snow Depth Not available.
6:54 AM 8:31 PM
Last Quarter, 41% visible
METAR KMBG 252252Z AUTO 30007KT 10SM FEW037 21/09 A3015 RMK AO2 SLP205 T02060089
A tropical disturbance pushing toward the Bahamas, is expected to develop into a tropical depression or storm, and will likely target Florida and the Gulf Coast this weekend into next week.

Right now, the disturbance remains a broad area of low pressure pushing through the Dominican Republic and Haiti, headed toward the southeast Bahamas. Rainfall totals over 3 inches (with locally higher amounts) are expected in HispaƱiola, particularly over elevated terrain.

10-Day Weather Forecast

Almanac

Astronomy

Aug. 25, 2016 Rise Set
Actual Time
Civil Twilight
Nautical Twilight
Astronomical Twilight
Moon
Length of Visible Light
Length of Day
Tomorrow will be .
, % of the Moon is Illuminated

Today's Extremes

State Highs State Lows

Community

WunderPhotos

Upload Photos

1,934,967 photos uploaded!

WunderBlog® & News

Nearby

Air Quality

  Air Quality AQ Index Pollutant
Not available.

Snow Depth

Station Depth Elevation

Earthquake Activity

City Distance Mag. Time & Date
Minimum magnitude displayed is 2.5.

Coastal Water Temperatures

Place Temperature

Stations

Nearby Weather Stations

Station Location Temp. Windchill Dew Point Humidity Wind Precip. Elev Updated Type
                   

Watches & Warnings

There are currently no watches in effect.